Aeroporto :
LOGIN :

Iscrizione | Disclaimer

   EN    FR    IT 

 










Sommario :    VFR   VFR Marginale   IFR   IFR Intensivo   IFR Molto Intensivo
Visibilità : 
Base nubi : 
>= 8 km
>= 3000ft
5 / 8 km
1000 / 3000 ft
1500m / 5 km
500 / 1000 ft
800 / 1500m
200 / 500 ft
< 800m
< 200 ft
Simboli :   Temporali  Nebbia  Neve Forte  Precipitazioni Forti  Vento > 20 kt
SIGMETs :   Varie  Temporali  Ghiacco  Turbolenza  Onda orograficha  Ceneri Vulcaniche







- Altitudine del aeroporto : 362 ft
- Codice IATA : WAW


EPWA - Warsaw Okecie

ULTIMO METAR :
  • 252100Z 13007KT CAVOK 23/17 Q1024 NOSIG

METARs OBSOLETI :
  • 252030Z 15007KT CAVOK 23/18 Q1024 NOSIG
  • 252000Z 16007KT CAVOK 24/17 Q1024 NOSIG
  • 251930Z 15007KT CAVOK 25/17 Q1024 NOSIG
  • 251900Z 15006KT CAVOK 26/17 Q1024 NOSIG
  • 251830Z 16005KT CAVOK 27/17 Q1024 NOSIG

TAF TAF EPWA
Valido dal 25 a 21 ore il 26 a 21 ore UTC


252030Z 2521/2621 16008KT CAVOK
BECMG 2608/2611 24010KT
Nessun NOTAM noto per questo aeroporto.



MetMap, La meteo Aeronautica in un colpo d'occhio ! - Copyright ORBIFLY Dicembre 2007 - Disclaimer

ORBIFLY MET'MAP TEAM :

Programmazione e sviluppo : Alexandra Zaïnal
Concezione e sviluppo : Baudouin d'Aumeries
Co-Programmazione e sviluppo : Marc-Olivier Méhu
Supporto tecnico e logistico : Manuel Goepfert
Aiuto per la traduzione : Arnaldo La Scala

Contatto : metmap@orbifly.com




FONTI E CREDITI :

   NOAA